Time;durP1;ratioP1;P1;durP2;ratioP2;P2;SDS_P1;SDS_P2;PMS_P1;PMS_P2;Temp;Humidity;BMP_temperature;BMP_pressure;BME280_temperature;BME280_humidity;BME280_pressure;Samples;Min_cycle;Max_cycle;Signal;HPM_P1;HPM_P2
2023/08/05 00:01:13;;;;;;;6.63;4.68;;;20.00;94.80;;;;;;4939392;29;20058;-77
2023/08/05 00:03:40;;;;;;;7.90;4.15;;;20.00;94.80;;;;;;4939564;29;20483;-76
2023/08/05 00:06:06;;;;;;;5.70;4.03;;;20.00;94.90;;;;;;4939128;29;20020;-77
2023/08/05 00:08:32;;;;;;;7.97;4.28;;;20.00;94.80;;;;;;4939676;29;20569;-78
2023/08/05 00:10:58;;;;;;;8.55;4.28;;;20.00;95.00;;;;;;4940234;29;20091;-78
2023/08/05 00:13:24;;;;;;;6.53;3.97;;;20.00;94.70;;;;;;4939992;29;20086;-77
2023/08/05 00:15:50;;;;;;;6.95;4.38;;;20.10;94.20;;;;;;4954644;28;20414;-78
2023/08/05 00:18:16;;;;;;;7.63;4.43;;;20.10;94.50;;;;;;4931462;29;20483;-77
2023/08/05 00:20:42;;;;;;;9.98;4.50;;;20.10;94.40;;;;;;4920767;29;20027;-77
2023/08/05 00:23:08;;;;;;;6.25;4.25;;;20.10;94.30;;;;;;4920160;29;20024;-77
2023/08/05 00:25:34;;;;;;;7.28;4.40;;;20.10;94.50;;;;;;4980518;23;20054;-85
2023/08/05 00:28:00;;;;;;;6.28;4.40;;;20.10;94.40;;;;;;4935422;29;20042;-85
2023/08/05 00:30:25;;;;;;;8.20;4.30;;;20.20;94.30;;;;;;4942765;29;20039;-85
2023/08/05 00:32:51;;;;;;;6.70;5.32;;;20.20;94.00;;;;;;4939545;28;20494;-85
2023/08/05 00:35:17;;;;;;;9.88;5.47;;;20.10;94.10;;;;;;4944559;28;20406;-85
2023/08/05 00:37:44;;;;;;;7.55;4.25;;;20.20;94.10;;;;;;4951293;28;20030;-86
2023/08/05 00:40:10;;;;;;;7.40;4.97;;;20.10;94.30;;;;;;4951550;28;20032;-87
2023/08/05 00:42:35;;;;;;;8.47;5.17;;;20.10;94.40;;;;;;4947178;29;20027;-87
2023/08/05 00:45:01;;;;;;;9.45;4.95;;;20.00;95.00;;;;;;4946572;28;20110;-86
2023/08/05 00:47:27;;;;;;;9.00;5.15;;;19.90;95.50;;;;;;4934967;29;20550;-86
2023/08/05 00:49:56;;;;;;;12.20;5.28;;;19.90;95.40;;;;;;4958615;28;20126;-87
2023/08/05 00:52:23;;;;;;;5.57;4.68;;;20.00;95.20;;;;;;4943151;29;20024;-87
2023/08/05 00:54:49;;;;;;;7.45;5.07;;;20.10;94.90;;;;;;4947260;29;20031;-87
2023/08/05 00:57:17;;;;;;;8.30;5.10;;;20.20;94.80;;;;;;4920485;29;20039;-86
2023/08/05 00:59:43;;;;;;;8.20;5.18;;;20.20;94.60;;;;;;4930912;29;20063;-88
2023/08/05 01:02:09;;;;;;;8.75;5.07;;;20.20;94.60;;;;;;4931476;29;20453;-88
2023/08/05 01:04:35;;;;;;;7.07;5.72;;;20.10;94.80;;;;;;4941155;29;20028;-88
2023/08/05 01:07:02;;;;;;;15.68;6.22;;;20.10;95.00;;;;;;4958850;28;20048;-88
2023/08/05 01:09:30;;;;;;;7.68;5.25;;;20.00;95.50;;;;;;4931831;29;20502;-87
2023/08/05 01:11:56;;;;;;;9.60;5.47;;;19.80;96.00;;;;;;4948378;29;20053;-87
2023/08/05 01:14:22;;;;;;;9.95;6.70;;;19.70;96.30;;;;;;4961686;28;20449;-87
2023/08/05 01:16:48;;;;;;;8.35;5.80;;;19.70;96.40;;;;;;4963673;28;20035;-88
2023/08/05 01:19:23;;;;;;;11.20;6.20;;;19.60;96.70;;;;;;4934893;29;20032;-87
2023/08/05 01:22:20;;;;;;;6.55;5.38;;;19.40;97.80;;;;;;4952437;28;20038;-86
2023/08/05 01:25:04;;;;;;;9.85;6.35;;;19.50;97.50;;;;;;4935546;29;20047;-87
2023/08/05 01:27:33;;;;;;;8.48;5.15;;;19.60;96.40;;;;;;4939667;29;20027;-87
2023/08/05 01:30:00;;;;;;;7.18;5.72;;;19.70;96.30;;;;;;4927582;29;20029;-85
2023/08/05 01:32:27;;;;;;;9.80;5.50;;;19.80;96.20;;;;;;4933493;29;20115;-86
2023/08/05 01:34:53;;;;;;;8.45;6.43;;;19.80;96.20;;;;;;4928660;29;20096;-86
2023/08/05 01:37:20;;;;;;;10.68;6.40;;;19.70;96.70;;;;;;4948336;29;20062;-86
2023/08/05 01:39:46;;;;;;;9.32;6.45;;;19.60;97.10;;;;;;4940494;29;20561;-86
2023/08/05 01:42:12;;;;;;;10.13;6.10;;;19.60;97.30;;;;;;4953458;28;20050;-87
2023/08/05 01:44:38;;;;;;;9.75;6.53;;;19.60;97.60;;;;;;4944704;29;20058;-87
2023/08/05 01:47:04;;;;;;;6.38;5.70;;;19.60;97.50;;;;;;4934626;29;20487;-87
2023/08/05 01:49:30;;;;;;;14.57;7.28;;;19.70;97.20;;;;;;4939674;29;20032;-87
2023/08/05 01:51:56;;;;;;;8.52;6.70;;;19.60;97.50;;;;;;4934881;29;20058;-86
2023/08/05 01:54:22;;;;;;;8.30;6.82;;;19.60;97.40;;;;;;4934733;29;20067;-85
2023/08/05 01:56:48;;;;;;;10.25;6.57;;;19.60;97.80;;;;;;4933407;29;20031;-86
2023/08/05 01:59:14;;;;;;;8.43;7.43;;;19.50;98.00;;;;;;4933405;29;20550;-85
2023/08/05 02:01:45;;;;;;;7.45;6.43;;;19.50;98.10;;;;;;4934057;29;20140;-87
2023/08/05 02:04:12;;;;;;;12.93;7.55;;;19.60;97.80;;;;;;4935133;29;20027;-86
2023/08/05 02:06:38;;;;;;;8.90;7.33;;;19.70;97.70;;;;;;4933881;28;20098;-87
2023/08/05 02:09:04;;;;;;;11.20;7.20;;;19.60;97.70;;;;;;4933677;29;20861;-86
2023/08/05 02:11:30;;;;;;;9.45;7.32;;;19.60;97.60;;;;;;4933508;29;20032;-86
2023/08/05 02:13:55;;;;;;;8.13;6.90;;;19.60;97.80;;;;;;4936259;29;20085;-86
2023/08/05 02:16:21;;;;;;;10.20;7.10;;;19.60;97.90;;;;;;4937366;29;20031;-87
2023/08/05 02:18:49;;;;;;;10.23;6.93;;;19.60;97.90;;;;;;4937664;29;20036;-87
2023/08/05 02:21:15;;;;;;;9.32;7.20;;;19.50;98.10;;;;;;4937257;29;20382;-86
2023/08/05 02:23:41;;;;;;;10.38;7.15;;;19.60;98.00;;;;;;4943215;29;20118;-86
2023/08/05 02:26:07;;;;;;;11.13;7.85;;;19.70;97.70;;;;;;4946537;29;20486;-87
2023/08/05 02:28:33;;;;;;;10.15;7.43;;;19.80;97.20;;;;;;4948639;28;20032;-86
2023/08/05 02:30:58;;;;;;;7.93;6.68;;;19.80;96.90;;;;;;4944090;29;20067;-88
2023/08/05 02:33:24;;;;;;;8.25;7.28;;;19.90;97.10;;;;;;4951142;29;20027;-87
2023/08/05 02:35:58;;;;;;;;;;;19.90;97.00;;;;;;4945949;29;20411;-87
2023/08/05 02:38:23;;;;;;;10.05;7.13;;;19.80;97.50;;;;;;4953111;28;19911;-87
2023/08/05 02:40:49;;;;;;;8.43;7.50;;;19.70;97.50;;;;;;4953123;28;20111;-87
2023/08/05 02:43:15;;;;;;;11.02;8.02;;;19.80;97.50;;;;;;4943597;29;20056;-87
2023/08/05 02:45:41;;;;;;;10.32;7.05;;;19.80;97.40;;;;;;4946029;29;20047;-87
2023/08/05 02:48:07;;;;;;;9.18;7.70;;;19.90;97.20;;;;;;4942140;29;20493;-87
2023/08/05 02:50:33;;;;;;;9.60;7.63;;;19.90;97.00;;;;;;4928846;29;20090;-87
2023/08/05 02:52:59;;;;;;;9.02;6.88;;;19.90;97.10;;;;;;4924286;29;20035;-88
2023/08/05 02:55:25;;;;;;;12.98;8.32;;;20.00;97.10;;;;;;4939070;29;20170;-87
2023/08/05 02:57:50;;;;;;;10.38;6.30;;;20.00;97.00;;;;;;4941297;29;20454;-88
2023/08/05 03:00:16;;;;;;;11.15;7.85;;;19.80;97.10;;;;;;4931427;29;20019;-86
2023/08/05 03:02:42;;;;;;;11.68;8.02;;;19.80;97.40;;;;;;4933560;29;20034;-87
2023/08/05 03:05:08;;;;;;;9.75;8.15;;;19.70;97.80;;;;;;4962370;28;20031;-87
2023/08/05 03:07:34;;;;;;;9.77;7.90;;;19.70;97.80;;;;;;4964604;28;20157;-86
2023/08/05 03:10:00;;;;;;;12.77;7.88;;;19.80;97.50;;;;;;4945330;29;20463;-86
2023/08/05 03:12:26;;;;;;;15.88;8.48;;;19.80;97.30;;;;;;4952423;28;20030;-87
2023/08/05 03:14:52;;;;;;;9.77;8.75;;;19.80;97.10;;;;;;4941278;28;20296;-86
2023/08/05 03:17:18;;;;;;;9.77;7.97;;;19.80;97.10;;;;;;4953017;28;20043;-86
2023/08/05 03:19:45;;;;;;;13.03;7.13;;;19.80;97.10;;;;;;4935806;29;20549;-85
2023/08/05 03:22:11;;;;;;;13.77;8.13;;;19.80;97.10;;;;;;4935549;29;20279;-86
2023/08/05 03:24:41;;;;;;;9.65;6.70;;;19.70;97.40;;;;;;4922376;29;20031;-86
2023/08/05 03:27:07;;;;;;;10.30;6.85;;;19.70;97.30;;;;;;4943350;29;20028;-87
2023/08/05 03:29:33;;;;;;;10.35;7.50;;;19.60;97.30;;;;;;4950848;29;20067;-87
2023/08/05 03:31:59;;;;;;;8.47;7.33;;;19.70;97.20;;;;;;4940941;29;20044;-85
2023/08/05 03:34:26;;;;;;;9.25;6.63;;;19.60;97.00;;;;;;4951502;28;20274;-87
2023/08/05 03:36:56;;;;;;;9.45;7.32;;;19.50;97.10;;;;;;4945627;29;20038;-86
2023/08/05 03:39:22;;;;;;;9.25;7.32;;;19.40;97.50;;;;;;4936525;29;20032;-86
2023/08/05 03:41:48;;;;;;;9.15;7.57;;;19.40;97.70;;;;;;4930149;29;20107;-85
2023/08/05 03:44:14;;;;;;;12.48;7.53;;;19.50;97.80;;;;;;4932215;29;20028;-88
2023/08/05 03:46:40;;;;;;;9.20;7.70;;;19.50;97.60;;;;;;4947733;28;20039;-83
2023/08/05 03:49:06;;;;;;;11.32;7.80;;;19.60;97.70;;;;;;4956254;29;20038;-82
2023/08/05 03:51:32;;;;;;;9.63;7.55;;;19.60;97.90;;;;;;4922909;29;20111;-86
2023/08/05 03:54:02;;;;;;;12.55;8.07;;;19.60;97.60;;;;;;4920608;29;20036;-89
2023/08/05 03:56:28;;;;;;;12.00;8.57;;;19.50;97.80;;;;;;4926251;29;20028;-83
2023/08/05 03:58:57;;;;;;;12.27;9.00;;;19.10;99.20;;;;;;4931934;29;20712;-89
2023/08/05 04:01:24;;;;;;;12.15;8.98;;;19.10;99.40;;;;;;4915564;29;20123;-88
2023/08/05 04:03:50;;;;;;;14.55;9.15;;;19.10;99.20;;;;;;4931615;29;20122;-89
2023/08/05 04:06:19;;;;;;;11.82;8.95;;;19.30;98.90;;;;;;4934261;29;20507;-89
2023/08/05 04:08:45;;;;;;;11.23;9.25;;;19.30;98.80;;;;;;4931661;29;20036;-89
2023/08/05 04:11:10;;;;;;;12.70;9.27;;;19.30;98.50;;;;;;4931611;29;20064;-90
2023/08/05 04:13:39;;;;;;;13.50;8.73;;;19.30;98.60;;;;;;4933116;29;20157;-90
2023/08/05 04:16:06;;;;;;;14.32;8.98;;;19.30;98.80;;;;;;4918849;29;20036;-88
2023/08/05 04:18:40;;;;;;;10.95;8.77;;;19.10;99.50;;;;;;4931542;29;20121;-88
2023/08/05 04:21:09;;;;;;;14.65;8.73;;;19.10;99.70;;;;;;4931543;29;20036;-88
2023/08/05 04:23:36;;;;;;;10.38;9.00;;;19.00;99.90;;;;;;4931499;29;20179;-88
2023/08/05 04:26:05;;;;;;;10.00;9.00;;;18.90;99.90;;;;;;4930944;29;20044;-87
2023/08/05 04:28:31;;;;;;;12.70;8.85;;;19.10;99.90;;;;;;4931722;29;20040;-86
2023/08/05 04:30:57;;;;;;;9.57;8.23;;;19.10;99.60;;;;;;4915324;29;20403;-88
2023/08/05 04:33:27;;;;;;;9.88;7.88;;;19.10;99.40;;;;;;4917151;29;20063;-89
2023/08/05 04:35:54;;;;;;;9.07;8.02;;;19.10;98.80;;;;;;4931258;29;20122;-89
2023/08/05 04:38:20;;;;;;;13.73;8.25;;;19.00;98.30;;;;;;4932529;29;20725;-88
2023/08/05 04:40:46;;;;;;;15.43;9.65;;;19.00;98.10;;;;;;4932314;29;20063;-88
2023/08/05 04:43:12;;;;;;;11.68;7.65;;;19.10;98.40;;;;;;4931187;29;20060;-88
2023/08/05 04:45:38;;;;;;;11.95;7.57;;;19.10;98.30;;;;;;4931146;29;20078;-88
2023/08/05 04:48:08;;;;;;;9.13;8.05;;;19.10;97.90;;;;;;4916042;29;20032;-88
2023/08/05 04:50:37;;;;;;;9.73;7.50;;;19.10;97.30;;;;;;4930819;29;20036;-89
2023/08/05 04:53:05;;;;;;;9.63;7.60;;;19.10;97.40;;;;;;4930838;29;20087;-89
2023/08/05 04:55:31;;;;;;;11.30;8.07;;;19.20;97.50;;;;;;4930883;29;20195;-89
2023/08/05 04:57:56;;;;;;;10.52;7.72;;;19.20;97.70;;;;;;4916387;29;20503;-89
2023/08/05 05:00:22;;;;;;;9.80;7.68;;;19.20;97.60;;;;;;4930935;29;20032;-89
2023/08/05 05:02:48;;;;;;;9.45;7.25;;;19.30;97.60;;;;;;4930562;29;20035;-89
2023/08/05 05:05:14;;;;;;;9.75;6.80;;;19.20;97.30;;;;;;4930845;29;20418;-89
2023/08/05 05:07:40;;;;;;;7.70;6.75;;;19.20;97.30;;;;;;4930539;29;20043;-89
2023/08/05 05:10:06;;;;;;;7.22;6.53;;;19.20;97.20;;;;;;4930646;29;20044;-89
2023/08/05 05:12:32;;;;;;;10.68;6.97;;;19.20;96.80;;;;;;4930455;29;20321;-89
2023/08/05 05:14:58;;;;;;;11.63;6.55;;;19.20;97.00;;;;;;4930402;29;20134;-89
2023/08/05 05:17:24;;;;;;;8.93;6.70;;;19.10;97.00;;;;;;4930585;29;20036;-89
2023/08/05 05:19:51;;;;;;;;;;;19.10;96.80;;;;;;4930856;29;20048;-89
2023/08/05 05:22:17;;;;;;;8.63;6.65;;;19.20;96.70;;;;;;4914377;29;20369;-89
2023/08/05 05:24:45;;;;;;;10.05;5.55;;;19.20;96.80;;;;;;4914832;29;20050;-89
2023/08/05 05:27:17;;;;;;;12.38;6.97;;;19.30;96.60;;;;;;4930336;29;20035;-89
2023/08/05 05:29:44;;;;;;;8.75;6.10;;;19.30;96.60;;;;;;4915899;29;20043;-89
2023/08/05 05:32:10;;;;;;;10.80;6.57;;;19.20;96.70;;;;;;4930395;29;20040;-89
2023/08/05 05:34:36;;;;;;;6.15;5.55;;;19.20;97.00;;;;;;4930226;29;20044;-89
2023/08/05 05:37:02;;;;;;;8.52;6.32;;;19.10;97.10;;;;;;4931540;29;20044;-89
2023/08/05 05:39:29;;;;;;;10.70;5.75;;;19.10;97.10;;;;;;4930572;29;20487;-89
2023/08/05 05:41:55;;;;;;;9.25;6.18;;;19.10;97.00;;;;;;4930324;29;20028;-89
2023/08/05 05:44:22;;;;;;;8.70;5.85;;;19.10;97.40;;;;;;4930473;29;20043;-89
2023/08/05 05:46:48;;;;;;;8.13;5.60;;;19.10;97.50;;;;;;4930230;29;20047;-89
2023/08/05 05:49:18;;;;;;;10.43;6.63;;;19.20;97.30;;;;;;4933564;29;20036;-89
2023/08/05 05:51:46;;;;;;;9.73;5.93;;;19.30;97.10;;;;;;4934102;29;20525;-89
2023/08/05 05:54:12;;;;;;;8.70;6.45;;;19.30;97.10;;;;;;4934049;29;20043;-89
2023/08/05 05:56:38;;;;;;;8.05;5.35;;;19.40;97.30;;;;;;4933883;29;20083;-88
2023/08/05 05:59:04;;;;;;;6.82;5.47;;;19.40;97.00;;;;;;4934333;29;20035;-89
2023/08/05 06:01:30;;;;;;;8.13;5.33;;;19.30;96.60;;;;;;4934020;29;20036;-89
2023/08/05 06:03:56;;;;;;;10.60;6.30;;;19.20;97.30;;;;;;4933721;29;20267;-88
2023/08/05 06:06:22;;;;;;;13.70;6.28;;;19.10;97.40;;;;;;4933917;29;20079;-87
2023/08/05 06:08:48;;;;;;;12.25;5.93;;;19.00;98.30;;;;;;4934901;29;20043;-88
2023/08/05 06:11:14;;;;;;;5.97;5.03;;;19.00;98.60;;;;;;4919400;29;20032;-87
2023/08/05 06:13:39;;;;;;;8.68;6.28;;;19.00;98.00;;;;;;4933861;29;20044;-87
2023/08/05 06:16:05;;;;;;;7.93;6.70;;;19.00;98.50;;;;;;4917550;29;20036;-88
2023/08/05 06:18:31;;;;;;;7.68;5.80;;;18.90;99.00;;;;;;4933291;29;20032;-87
2023/08/05 06:20:57;;;;;;;11.55;6.28;;;18.80;99.00;;;;;;4933336;29;20055;-87
2023/08/05 06:23:23;;;;;;;8.43;5.43;;;19.00;98.90;;;;;;4933317;29;20032;-87
2023/08/05 06:25:48;;;;;;;10.23;6.93;;;19.10;98.30;;;;;;4981659;23;20048;-77
2023/08/05 06:28:14;;;;;;;8.02;6.88;;;19.20;97.90;;;;;;4950529;29;20548;-79
2023/08/05 06:30:47;;;;;;;7.47;6.65;;;19.40;97.40;;;;;;4952769;29;20031;-79
2023/08/05 06:33:13;;;;;;;9.20;6.38;;;19.40;97.10;;;;;;4948983;29;20118;-78
2023/08/05 06:35:40;;;;;;;9.03;6.17;;;19.50;96.90;;;;;;4943418;29;20035;-78
2023/08/05 06:38:06;;;;;;;;;;;19.60;96.40;;;;;;4942495;29;20274;-78
2023/08/05 06:40:32;;;;;;;7.18;5.75;;;19.70;96.20;;;;;;4940714;29;19914;-78
2023/08/05 06:42:58;;;;;;;10.17;5.80;;;19.70;96.20;;;;;;4938708;29;20111;-79
2023/08/05 06:45:23;;;;;;;9.52;6.15;;;19.80;95.90;;;;;;4939284;29;20078;-78
2023/08/05 06:47:49;;;;;;;8.75;5.45;;;20.00;96.20;;;;;;4937524;29;20028;-78
2023/08/05 06:50:15;;;;;;;10.95;6.28;;;20.20;95.30;;;;;;4938732;29;20501;-78
2023/08/05 06:52:41;;;;;;;9.75;6.30;;;20.30;94.40;;;;;;4939245;29;20040;-79
2023/08/05 06:55:08;;;;;;;8.48;5.72;;;20.40;94.50;;;;;;4938896;29;20044;-79
2023/08/05 06:57:35;;;;;;;6.32;5.72;;;20.40;93.70;;;;;;4938891;29;20028;-79
2023/08/05 07:00:00;;;;;;;9.18;6.25;;;20.30;93.30;;;;;;4937154;29;20059;-79
2023/08/05 07:02:26;;;;;;;8.00;5.78;;;20.40;93.80;;;;;;4938694;29;20115;-80
2023/08/05 07:04:53;;;;;;;5.70;4.78;;;20.40;94.10;;;;;;4937817;29;20099;-79
2023/08/05 07:07:19;;;;;;;7.72;5.18;;;20.50;93.60;;;;;;4937250;29;20067;-79
2023/08/05 07:09:45;;;;;;;8.40;5.47;;;20.50;93.20;;;;;;4937838;29;20086;-79
2023/08/05 07:12:11;;;;;;;6.50;4.75;;;20.50;93.60;;;;;;4937630;29;20455;-79
2023/08/05 07:14:38;;;;;;;8.02;5.40;;;20.50;93.70;;;;;;4938365;29;20085;-79
2023/08/05 07:17:04;;;;;;;7.70;5.18;;;20.70;93.70;;;;;;4937809;29;20035;-79
2023/08/05 07:19:30;;;;;;;7.90;5.18;;;20.80;93.20;;;;;;4937911;29;20031;-79
2023/08/05 07:21:56;;;;;;;7.72;4.57;;;20.80;92.70;;;;;;4937362;29;20028;-79
2023/08/05 07:24:22;;;;;;;7.93;5.82;;;20.90;92.00;;;;;;4938519;29;20440;-80
2023/08/05 07:26:48;;;;;;;9.73;5.45;;;20.60;91.60;;;;;;4936330;29;20039;-80
2023/08/05 07:29:14;;;;;;;10.50;5.97;;;20.40;92.70;;;;;;4937615;29;20047;-80
2023/08/05 07:31:40;;;;;;;14.05;7.13;;;20.50;93.30;;;;;;4920368;29;20027;-80
2023/08/05 07:34:05;;;;;;;6.72;5.40;;;20.40;93.50;;;;;;4938179;29;20522;-80
2023/08/05 07:36:32;;;;;;;6.80;5.53;;;20.40;92.70;;;;;;4937161;29;20388;-81
2023/08/05 07:38:59;;;;;;;7.18;5.35;;;20.50;93.40;;;;;;4937735;29;20079;-81
2023/08/05 07:41:26;;;;;;;8.02;5.47;;;20.80;93.00;;;;;;4935530;29;20050;-81
2023/08/05 07:44:00;;;;;;;6.60;5.18;;;20.90;92.20;;;;;;4936699;29;20511;-80
2023/08/05 07:46:26;;;;;;;5.93;4.55;;;21.10;91.80;;;;;;4937413;29;20122;-81
2023/08/05 07:48:55;;;;;;;7.22;5.10;;;21.10;91.40;;;;;;4935568;29;20171;-80
2023/08/05 07:51:23;;;;;;;7.90;5.22;;;21.10;91.40;;;;;;4935014;29;20442;-80
2023/08/05 07:53:49;;;;;;;7.93;4.80;;;21.30;91.70;;;;;;4936676;29;20031;-81
2023/08/05 07:56:16;;;;;;;5.78;4.55;;;21.50;91.10;;;;;;4936449;29;20147;-80
2023/08/05 07:58:47;;;;;;;8.60;5.03;;;21.50;90.60;;;;;;4936532;29;20086;-79
2023/08/05 08:01:19;;;;;;;5.28;4.45;;;21.40;90.30;;;;;;4935103;29;20510;-80
2023/08/05 08:03:45;;;;;;;7.80;4.93;;;21.40;90.40;;;;;;4935265;29;20067;-78
2023/08/05 08:06:17;;;;;;;6.25;4.68;;;21.30;90.40;;;;;;4936406;29;20075;-78
2023/08/05 08:08:43;;;;;;;6.65;5.28;;;21.50;90.60;;;;;;4936336;29;20087;-78
2023/08/05 08:11:12;;;;;;;6.53;4.93;;;21.70;90.70;;;;;;4934337;29;20036;-78
2023/08/05 08:13:39;;;;;;;7.95;5.45;;;21.90;89.70;;;;;;4919117;29;20062;-78
2023/08/05 08:16:05;;;;;;;5.30;4.25;;;21.50;88.40;;;;;;4936050;29;20114;-79
2023/08/05 08:18:31;;;;;;;6.28;4.75;;;21.40;89.60;;;;;;4934890;29;20035;-78
2023/08/05 08:20:57;;;;;;;6.25;4.55;;;21.60;89.70;;;;;;4934651;29;20393;-79
2023/08/05 08:23:23;;;;;;;9.82;5.00;;;21.60;89.20;;;;;;4935958;29;20027;-78
2023/08/05 08:25:49;;;;;;;19.20;5.20;;;21.60;89.00;;;;;;4936081;29;20042;-78
2023/08/05 08:28:15;;;;;;;6.80;5.13;;;21.30;89.30;;;;;;4935901;29;20358;-79
2023/08/05 08:30:51;;;;;;;7.22;5.38;;;21.00;90.80;;;;;;4935855;29;20039;-79
2023/08/05 08:33:17;;;;;;;6.88;4.55;;;21.00;90.70;;;;;;4936140;29;20031;-79
2023/08/05 08:35:43;;;;;;;9.32;5.13;;;21.10;91.00;;;;;;4937782;29;20437;-79
2023/08/05 08:38:09;;;;;;;15.55;6.35;;;21.20;90.70;;;;;;4935921;29;20059;-79
2023/08/05 08:40:35;;;;;;;11.25;4.80;;;21.30;90.90;;;;;;4936663;29;20066;-78
2023/08/05 08:43:02;;;;;;;10.07;4.37;;;21.40;90.80;;;;;;4937302;29;20099;-79
2023/08/05 08:45:32;;;;;;;;;;;21.40;90.40;;;;;;4936463;29;20031;-79
2023/08/05 08:47:59;;;;;;;8.68;5.05;;;21.30;88.90;;;;;;4937736;29;19918;-80
2023/08/05 08:50:26;;;;;;;6.10;4.55;;;21.30;90.00;;;;;;4935871;29;20032;-80
2023/08/05 08:52:55;;;;;;;6.25;4.40;;;21.50;90.10;;;;;;4936839;29;20119;-80
2023/08/05 08:55:22;;;;;;;6.13;4.15;;;21.60;89.30;;;;;;4936348;29;20035;-80
2023/08/05 08:57:47;;;;;;;7.60;5.00;;;21.50;88.10;;;;;;4936643;29;20463;-81
2023/08/05 09:00:13;;;;;;;5.57;4.10;;;21.40;88.10;;;;;;4938660;29;20271;-80
2023/08/05 09:02:40;;;;;;;8.25;4.55;;;21.50;89.00;;;;;;4937410;29;20028;-80
2023/08/05 09:05:07;;;;;;;5.80;4.85;;;21.60;88.70;;;;;;4937963;29;20414;-80
2023/08/05 09:07:34;;;;;;;8.52;4.18;;;21.80;88.90;;;;;;4937549;29;20554;-80
2023/08/05 09:10:06;;;;;;;7.45;4.40;;;21.90;87.90;;;;;;4937242;29;20500;-80
2023/08/05 09:12:34;;;;;;;4.72;3.95;;;22.00;86.80;;;;;;4936012;29;20043;-80
2023/08/05 09:14:59;;;;;;;6.53;4.78;;;22.20;87.00;;;;;;4937707;29;20475;-80
2023/08/05 09:17:26;;;;;;;7.88;4.70;;;22.30;86.70;;;;;;4935584;29;20034;-81
2023/08/05 09:19:52;;;;;;;8.13;4.57;;;22.20;85.80;;;;;;4935410;29;20394;-80
2023/08/05 09:22:18;;;;;;;5.68;4.75;;;22.30;86.00;;;;;;4935416;29;20504;-80
2023/08/05 09:24:44;;;;;;;6.93;4.77;;;22.40;86.10;;;;;;4934900;29;20508;-81
2023/08/05 09:27:09;;;;;;;6.77;5.17;;;22.50;85.10;;;;;;4935477;29;20304;-81
2023/08/05 09:29:36;;;;;;;6.07;4.40;;;22.50;84.30;;;;;;4935385;29;20119;-80
2023/08/05 09:32:05;;;;;;;9.63;5.30;;;22.60;84.70;;;;;;4935054;29;20054;-81
2023/08/05 09:34:49;;;;;;;8.68;5.10;;;22.70;83.90;;;;;;4935190;29;20048;-80
2023/08/05 09:37:15;;;;;;;8.43;4.90;;;22.70;84.80;;;;;;4936302;29;20046;-80
2023/08/05 09:39:45;;;;;;;5.35;4.38;;;22.70;83.00;;;;;;4934340;29;20020;-80
2023/08/05 09:42:24;;;;;;;6.35;4.97;;;22.70;83.40;;;;;;4936568;29;20513;-80
2023/08/05 09:44:53;;;;;;;6.30;5.10;;;22.70;83.10;;;;;;4935039;29;20107;-80
2023/08/05 09:47:23;;;;;;;7.88;5.00;;;22.70;83.00;;;;;;4935717;29;20042;-80
2023/08/05 09:49:50;;;;;;;6.25;4.50;;;22.60;83.20;;;;;;4936513;29;20114;-79
2023/08/05 09:52:17;;;;;;;9.77;5.15;;;22.60;84.00;;;;;;4934198;29;20042;-79
2023/08/05 09:54:59;;;;;;;8.32;5.25;;;22.60;84.30;;;;;;4935893;29;20063;-79
2023/08/05 09:57:29;;;;;;;8.25;5.32;;;22.60;86.40;;;;;;4935254;29;20063;-79
2023/08/05 09:59:58;;;;;;;9.40;6.03;;;22.70;84.70;;;;;;4935315;29;20040;-80
2023/08/05 10:02:25;;;;;;;6.35;4.57;;;22.70;83.40;;;;;;4935386;29;20451;-79
2023/08/05 10:04:56;;;;;;;6.82;4.88;;;22.70;84.00;;;;;;4936549;29;20028;-79
2023/08/05 10:07:23;;;;;;;6.53;5.30;;;22.70;83.40;;;;;;4937183;29;20618;-79
2023/08/05 10:09:50;;;;;;;7.90;5.00;;;22.90;83.80;;;;;;4934671;29;20028;-79
2023/08/05 10:12:37;;;;;;;6.00;4.65;;;23.00;82.70;;;;;;4935061;29;20697;-79
2023/08/05 10:15:05;;;;;;;7.72;5.60;;;23.10;82.00;;;;;;4935222;29;20031;-79
2023/08/05 10:17:31;;;;;;;7.38;4.80;;;23.10;81.60;;;;;;4933659;29;20028;-79
2023/08/05 10:20:00;;;;;;;9.15;5.00;;;23.10;81.20;;;;;;4933773;29;20032;-79
2023/08/05 10:22:27;;;;;;;7.22;5.57;;;23.30;81.30;;;;;;4934811;29;20410;-79
2023/08/05 10:24:58;;;;;;;8.32;5.32;;;23.40;80.60;;;;;;4933396;29;20030;-79
2023/08/05 10:27:36;;;;;;;6.93;5.38;;;23.60;79.90;;;;;;4934577;29;20027;-79
2023/08/05 10:30:11;;;;;;;6.22;4.70;;;23.70;78.90;;;;;;4935061;29;20032;-79
2023/08/05 10:32:51;;;;;;;7.18;5.90;;;23.90;78.20;;;;;;4933585;29;20062;-79
2023/08/05 10:35:39;;;;;;;5.20;4.55;;;24.20;77.90;;;;;;4936403;29;20059;-79
2023/08/05 10:38:19;;;;;;;7.28;5.07;;;24.50;76.60;;;;;;4938882;29;20033;-79
2023/08/05 10:40:56;;;;;;;7.78;5.25;;;24.60;77.00;;;;;;4938686;29;20028;-79
2023/08/05 10:43:31;;;;;;;6.43;5.13;;;24.80;74.90;;;;;;4939958;29;20506;-80
2023/08/05 10:46:05;;;;;;;11.00;5.07;;;24.90;74.10;;;;;;4955741;29;20042;-79
2023/08/05 10:48:35;;;;;;;8.50;4.75;;;24.90;74.60;;;;;;4948328;29;20031;-79
2023/08/05 10:51:11;;;;;;;6.78;5.13;;;25.10;74.30;;;;;;4945833;29;20162;-79
2023/08/05 10:53:38;;;;;;;6.85;5.05;;;25.30;73.80;;;;;;4948415;29;20040;-79
2023/08/05 10:56:11;;;;;;;7.47;5.03;;;25.40;72.60;;;;;;4940000;29;20024;-79
2023/08/05 10:58:46;;;;;;;8.57;5.22;;;25.50;71.90;;;;;;4953533;29;20032;-79
2023/08/05 11:01:12;;;;;;;8.48;4.95;;;25.50;72.10;;;;;;4942202;29;20024;-79
2023/08/05 11:03:44;;;;;;;8.87;4.67;;;25.50;71.60;;;;;;4942605;29;20024;-79
2023/08/05 11:06:12;;;;;;;10.50;5.00;;;25.60;73.30;;;;;;4940769;29;20106;-79
2023/08/05 11:08:40;;;;;;;7.90;4.18;;;25.80;71.60;;;;;;4938861;29;20028;-79
2023/08/05 11:11:08;;;;;;;4.55;3.25;;;26.00;69.80;;;;;;4934860;29;20038;-79
2023/08/05 11:13:37;;;;;;;5.63;4.05;;;26.00;67.80;;;;;;4941335;29;20039;-79
2023/08/05 11:16:06;;;;;;;6.25;3.78;;;26.00;67.50;;;;;;4938261;29;20107;-79
2023/08/05 11:18:33;;;;;;;11.23;3.42;;;25.90;68.00;;;;;;4939672;29;20068;-79
2023/08/05 11:21:01;;;;;;;4.95;3.13;;;25.90;67.20;;;;;;4949195;29;20099;-79
2023/08/05 11:23:27;;;;;;;8.30;2.88;;;26.00;67.20;;;;;;4938257;29;20028;-79
2023/08/05 11:25:54;;;;;;;4.22;2.88;;;26.10;66.70;;;;;;4944720;29;20386;-79
2023/08/05 11:28:21;;;;;;;6.72;3.70;;;26.10;66.70;;;;;;4953736;29;20114;-79
2023/08/05 11:30:47;;;;;;;5.63;2.95;;;26.10;66.70;;;;;;4947585;29;20102;-79
2023/08/05 11:33:13;;;;;;;5.60;3.10;;;26.00;65.40;;;;;;4949319;28;20132;-79
2023/08/05 11:35:46;;;;;;;5.23;3.30;;;26.10;65.90;;;;;;4950132;29;20035;-79
2023/08/05 11:38:18;;;;;;;4.32;2.58;;;26.20;64.40;;;;;;4952493;29;20068;-79
2023/08/05 11:40:47;;;;;;;2.50;1.73;;;26.30;66.30;;;;;;4944210;29;20067;-79
2023/08/05 11:43:15;;;;;;;2.88;1.20;;;26.60;62.70;;;;;;4948732;28;20126;-79
2023/08/05 11:45:41;;;;;;;2.97;1.83;;;26.70;61.30;;;;;;4938106;29;20040;-79
2023/08/05 11:48:23;;;;;;;2.50;1.30;;;26.90;61.10;;;;;;4954185;29;20098;-79
2023/08/05 11:50:50;;;;;;;2.42;1.58;;;27.00;58.80;;;;;;4936706;29;20032;-79
2023/08/05 11:53:17;;;;;;;2.28;1.63;;;27.10;59.10;;;;;;4951993;29;20046;-79
2023/08/05 11:55:44;;;;;;;3.67;2.22;;;27.10;57.50;;;;;;4942484;29;20041;-79
2023/08/05 11:58:13;;;;;;;3.47;2.13;;;27.20;58.00;;;;;;4948728;28;20023;-79
2023/08/05 12:00:44;;;;;;;4.57;2.08;;;27.20;59.10;;;;;;4954056;29;20077;-79
2023/08/05 12:03:10;;;;;;;2.95;2.20;;;27.30;59.00;;;;;;4951467;29;20027;-79
2023/08/05 12:05:36;;;;;;;5.88;2.05;;;27.30;58.40;;;;;;4944372;29;20405;-79
2023/08/05 12:08:02;;;;;;;3.80;1.87;;;27.30;58.00;;;;;;4952062;29;20035;-79
2023/08/05 12:10:29;;;;;;;3.63;2.40;;;27.30;57.90;;;;;;4955445;29;20024;-79
2023/08/05 12:12:55;;;;;;;3.65;1.85;;;27.30;58.10;;;;;;4953072;29;20103;-79
2023/08/05 12:15:26;;;;;;;4.07;2.33;;;27.40;58.40;;;;;;4944214;29;20546;-79
2023/08/05 12:17:54;;;;;;;4.20;2.15;;;27.50;58.60;;;;;;4954688;29;20042;-79
2023/08/05 12:20:23;;;;;;;4.22;1.92;;;27.60;58.50;;;;;;4955146;29;20031;-79
2023/08/05 12:22:49;;;;;;;2.42;1.55;;;27.70;58.20;;;;;;4966754;28;20375;-79
2023/08/05 12:25:16;;;;;;;1.30;0.98;;;27.70;59.40;;;;;;4939269;29;20071;-78
2023/08/05 12:27:42;;;;;;;2.20;1.25;;;27.70;56.70;;;;;;4979339;23;20054;-88
2023/08/05 12:30:09;;;;;;;1.60;0.90;;;27.60;56.30;;;;;;4920090;29;20039;-88
2023/08/05 12:32:35;;;;;;;0.70;0.60;;;27.60;55.70;;;;;;4953550;29;20027;-89
2023/08/05 12:35:05;;;;;;;4.72;0.75;;;27.60;54.30;;;;;;4942370;29;20059;-89
2023/08/05 12:37:33;;;;;;;0.90;0.60;;;27.70;53.90;;;;;;4950897;28;20126;-88
2023/08/05 12:40:00;;;;;;;1.15;0.73;;;27.80;55.50;;;;;;4942050;29;20039;-87
2023/08/05 12:42:26;;;;;;;1.30;0.75;;;28.00;54.40;;;;;;4948510;29;20027;-87
2023/08/05 12:44:52;;;;;;;0.93;0.90;;;28.20;54.20;;;;;;4935313;29;20030;-88
2023/08/05 12:47:19;;;;;;;1.10;1.00;;;28.50;53.30;;;;;;4967818;28;20118;-87